WIF1356 ENTC-ENVA
Flight info
| Callsign | WIF1356 |
|---|---|
| Flight time | N/A |
| Altitude | 24000 |
| Route | AMIMO DCT NUPGO |
| Aircraft | DH8D/M-SDE2E3FGRY/H |
Departure
| Time | N/A |
|---|---|
| Airport | Tromsø Airport (ENTC) |
Arrival
| Time | 2026-04-29 17:35 |
|---|---|
| Airport | Trondheim Airport, Værnes (ENVA) |
| Time | Latitude | Longitude | Altitude | Speed | Heading |
|---|---|---|---|---|---|
| 2026-04-29 16:23 | 68.70328 | 17.65873 | 24052 ft | 327 kts | 220° |
| 2026-04-29 16:23 | 68.68188 | 17.62610 | 24051 ft | 328 kts | 220° |
| 2026-04-29 16:23 | 68.66223 | 17.59620 | 24024 ft | 329 kts | 219° |
| 2026-04-29 16:23 | 68.64249 | 17.56616 | 24043 ft | 331 kts | 219° |
| 2026-04-29 16:24 | 68.62223 | 17.53540 | 24041 ft | 333 kts | 219° |
| 2026-04-29 16:24 | 68.60196 | 17.50467 | 24067 ft | 334 kts | 219° |
| 2026-04-29 16:24 | 68.58182 | 17.47422 | 24063 ft | 334 kts | 219° |
| 2026-04-29 16:24 | 68.56144 | 17.44350 | 24076 ft | 336 kts | 219° |
| 2026-04-29 16:25 | 68.54118 | 17.41297 | 24068 ft | 337 kts | 219° |
| 2026-04-29 16:25 | 68.52294 | 17.38556 | 24067 ft | 338 kts | 219° |
| 2026-04-29 16:25 | 68.50220 | 17.35446 | 24070 ft | 339 kts | 219° |
| 2026-04-29 16:25 | 68.48180 | 17.32391 | 24062 ft | 341 kts | 218° |
| 2026-04-29 16:26 | 68.46078 | 17.29250 | 24054 ft | 342 kts | 218° |
| 2026-04-29 16:26 | 68.43996 | 17.26142 | 24047 ft | 344 kts | 218° |
| 2026-04-29 16:26 | 68.41909 | 17.23039 | 24053 ft | 345 kts | 217° |
| 2026-04-29 16:26 | 68.39880 | 17.20026 | 24055 ft | 346 kts | 218° |
| 2026-04-29 16:27 | 68.37772 | 17.16902 | 24046 ft | 347 kts | 217° |
| 2026-04-29 16:27 | 68.35653 | 17.13771 | 24045 ft | 348 kts | 217° |
| 2026-04-29 16:27 | 68.33545 | 17.10662 | 24030 ft | 348 kts | 217° |
| 2026-04-29 16:27 | 68.31406 | 17.07514 | 24033 ft | 350 kts | 218° |
| 2026-04-29 16:28 | 68.29274 | 17.04382 | 24051 ft | 350 kts | 217° |
| 2026-04-29 16:28 | 68.27150 | 17.01268 | 24056 ft | 350 kts | 218° |
| 2026-04-29 16:28 | 68.24998 | 16.98121 | 24044 ft | 351 kts | 218° |
| 2026-04-29 16:28 | 68.22855 | 16.94994 | 24023 ft | 352 kts | 218° |
| 2026-04-29 16:29 | 68.20738 | 16.91913 | 24036 ft | 352 kts | 218° |
| 2026-04-29 16:29 | 68.18571 | 16.88764 | 24041 ft | 353 kts | 218° |
| 2026-04-29 16:29 | 68.16429 | 16.85656 | 24038 ft | 354 kts | 218° |
| 2026-04-29 16:29 | 68.14247 | 16.82498 | 24049 ft | 354 kts | 218° |
| 2026-04-29 16:30 | 68.12118 | 16.79425 | 24040 ft | 353 kts | 218° |
| 2026-04-29 16:30 | 68.09958 | 16.76316 | 24052 ft | 353 kts | 218° |
| 2026-04-29 16:30 | 68.07813 | 16.73232 | 24048 ft | 354 kts | 218° |
| 2026-04-29 16:30 | 68.05643 | 16.70117 | 24047 ft | 354 kts | 218° |
| 2026-04-29 16:31 | 68.03475 | 16.67011 | 24052 ft | 354 kts | 218° |
| 2026-04-29 16:31 | 68.01320 | 16.63931 | 24038 ft | 355 kts | 218° |
| 2026-04-29 16:31 | 67.99137 | 16.60820 | 24038 ft | 355 kts | 218° |
| 2026-04-29 16:31 | 67.96967 | 16.57734 | 24040 ft | 354 kts | 218° |
| 2026-04-29 16:32 | 67.94801 | 16.54662 | 24047 ft | 355 kts | 218° |
| 2026-04-29 16:32 | 67.92626 | 16.51580 | 24046 ft | 355 kts | 218° |
| 2026-04-29 16:32 | 67.90459 | 16.48514 | 24036 ft | 356 kts | 218° |
| 2026-04-29 16:32 | 67.88306 | 16.45477 | 24029 ft | 355 kts | 218° |
| 2026-04-29 16:33 | 67.84016 | 16.39212 | 24063 ft | 351 kts | 220° |
| 2026-04-29 16:33 | 67.81896 | 16.36015 | 24070 ft | 350 kts | 220° |
| 2026-04-29 16:33 | 67.79765 | 16.32810 | 24047 ft | 352 kts | 219° |
| 2026-04-29 16:34 | 67.77641 | 16.29628 | 24040 ft | 351 kts | 219° |
| 2026-04-29 16:34 | 67.75527 | 16.26472 | 24047 ft | 352 kts | 219° |
| 2026-04-29 16:34 | 67.73389 | 16.23285 | 24039 ft | 353 kts | 219° |
| 2026-04-29 16:34 | 67.71252 | 16.20111 | 24043 ft | 354 kts | 219° |
| 2026-04-29 16:35 | 67.69141 | 16.16985 | 24041 ft | 355 kts | 219° |
| 2026-04-29 16:35 | 67.66970 | 16.13780 | 24040 ft | 356 kts | 219° |
| 2026-04-29 16:35 | 67.64831 | 16.10629 | 24054 ft | 356 kts | 219° |
| 2026-04-29 16:35 | 67.62694 | 16.07488 | 24067 ft | 355 kts | 219° |
| 2026-04-29 16:36 | 67.60541 | 16.04313 | 24068 ft | 355 kts | 219° |
| 2026-04-29 16:36 | 67.58401 | 16.01154 | 24066 ft | 355 kts | 219° |
| 2026-04-29 16:36 | 67.56236 | 15.97977 | 24080 ft | 355 kts | 219° |
| 2026-04-29 16:36 | 67.54108 | 15.94861 | 24073 ft | 354 kts | 219° |
| 2026-04-29 16:37 | 67.51942 | 15.91702 | 24078 ft | 354 kts | 219° |
| 2026-04-29 16:37 | 67.49824 | 15.88624 | 24076 ft | 354 kts | 219° |
| 2026-04-29 16:37 | 67.47653 | 15.85474 | 24087 ft | 354 kts | 219° |
| 2026-04-29 16:37 | 67.46246 | 15.83434 | 24076 ft | 355 kts | 219° |
| 2026-04-29 16:38 | 67.43372 | 15.79283 | 24092 ft | 356 kts | 219° |
| 2026-04-29 16:38 | 67.41194 | 15.76144 | 24093 ft | 356 kts | 219° |
| 2026-04-29 16:38 | 67.39041 | 15.73052 | 24075 ft | 357 kts | 219° |
| 2026-04-29 16:38 | 67.36862 | 15.69928 | 24083 ft | 357 kts | 219° |
| 2026-04-29 16:39 | 67.34705 | 15.66846 | 24084 ft | 356 kts | 219° |
| 2026-04-29 16:39 | 67.32543 | 15.63765 | 24104 ft | 356 kts | 219° |
| 2026-04-29 16:39 | 67.30393 | 15.60704 | 24125 ft | 355 kts | 219° |
| 2026-04-29 16:39 | 67.28228 | 15.57624 | 24110 ft | 356 kts | 219° |
| 2026-04-29 16:40 | 67.26077 | 15.54571 | 24112 ft | 356 kts | 219° |
| 2026-04-29 16:40 | 67.23929 | 15.51533 | 24116 ft | 355 kts | 219° |
| 2026-04-29 16:40 | 67.21767 | 15.48480 | 24139 ft | 355 kts | 219° |
| 2026-04-29 16:40 | 67.19606 | 15.45437 | 24129 ft | 353 kts | 219° |
| 2026-04-29 16:41 | 67.17477 | 15.42445 | 24133 ft | 352 kts | 220° |
| 2026-04-29 16:41 | 67.15316 | 15.39413 | 24135 ft | 352 kts | 219° |
| 2026-04-29 16:41 | 67.13175 | 15.36412 | 24127 ft | 353 kts | 219° |
| 2026-04-29 16:41 | 67.11033 | 15.33416 | 24126 ft | 353 kts | 219° |
| 2026-04-29 16:42 | 67.08913 | 15.30456 | 24125 ft | 354 kts | 219° |
| 2026-04-29 16:42 | 67.06737 | 15.27422 | 24126 ft | 357 kts | 218° |
| 2026-04-29 16:42 | 67.04562 | 15.24396 | 24120 ft | 358 kts | 218° |
| 2026-04-29 16:42 | 67.02367 | 15.21353 | 24111 ft | 358 kts | 219° |
| 2026-04-29 16:43 | 67.00202 | 15.18361 | 24101 ft | 358 kts | 218° |
| 2026-04-29 16:43 | 66.98012 | 15.15339 | 24100 ft | 358 kts | 218° |
| 2026-04-29 16:43 | 66.95810 | 15.12306 | 24094 ft | 359 kts | 219° |
| 2026-04-29 16:43 | 66.93624 | 15.09301 | 24079 ft | 361 kts | 218° |
| 2026-04-29 16:44 | 66.91427 | 15.06285 | 24081 ft | 362 kts | 218° |
| 2026-04-29 16:44 | 66.89239 | 15.03287 | 24081 ft | 362 kts | 218° |
| 2026-04-29 16:44 | 66.86999 | 15.00229 | 24088 ft | 362 kts | 218° |
| 2026-04-29 16:44 | 66.84785 | 14.97216 | 24094 ft | 360 kts | 218° |
| 2026-04-29 16:45 | 66.82593 | 14.94234 | 24096 ft | 360 kts | 219° |
| 2026-04-29 16:45 | 66.80405 | 14.91264 | 24081 ft | 359 kts | 218° |
| 2026-04-29 16:45 | 66.78194 | 14.88273 | 24084 ft | 359 kts | 218° |
| 2026-04-29 16:45 | 66.76021 | 14.85332 | 24082 ft | 359 kts | 218° |
| 2026-04-29 16:46 | 66.73810 | 14.82346 | 24076 ft | 358 kts | 219° |
| 2026-04-29 16:46 | 66.71613 | 14.79408 | 24079 ft | 358 kts | 218° |
| 2026-04-29 16:46 | 66.69431 | 14.76525 | 24088 ft | 358 kts | 218° |
| 2026-04-29 16:46 | 66.67236 | 14.73618 | 24074 ft | 359 kts | 218° |
| 2026-04-29 16:47 | 66.65039 | 14.70704 | 24090 ft | 358 kts | 218° |
| 2026-04-29 16:47 | 66.62826 | 14.67768 | 24097 ft | 358 kts | 218° |
| 2026-04-29 16:47 | 66.60653 | 14.64888 | 24099 ft | 356 kts | 218° |
| 2026-04-29 16:47 | 66.58450 | 14.61971 | 24098 ft | 357 kts | 218° |
| 2026-04-29 16:48 | 66.56269 | 14.59080 | 24097 ft | 357 kts | 218° |
| 2026-04-29 16:48 | 66.54085 | 14.56193 | 24110 ft | 356 kts | 218° |
| 2026-04-29 16:48 | 66.51894 | 14.53296 | 24106 ft | 357 kts | 218° |
| 2026-04-29 16:48 | 66.49686 | 14.50382 | 24106 ft | 357 kts | 218° |
| 2026-04-29 16:49 | 66.47507 | 14.47516 | 24114 ft | 358 kts | 218° |
| 2026-04-29 16:49 | 66.45312 | 14.44630 | 24128 ft | 358 kts | 218° |
| 2026-04-29 16:49 | 66.43130 | 14.41767 | 24144 ft | 357 kts | 218° |
| 2026-04-29 16:49 | 66.40915 | 14.38867 | 24152 ft | 357 kts | 218° |
| 2026-04-29 16:50 | 66.38733 | 14.36017 | 24164 ft | 356 kts | 218° |
| 2026-04-29 16:50 | 66.36571 | 14.33204 | 24166 ft | 355 kts | 217° |
| 2026-04-29 16:50 | 66.34399 | 14.30374 | 24162 ft | 355 kts | 217° |
| 2026-04-29 16:50 | 66.32193 | 14.27502 | 24158 ft | 355 kts | 217° |
| 2026-04-29 16:51 | 66.30001 | 14.24656 | 24157 ft | 355 kts | 217° |
| 2026-04-29 16:51 | 66.27822 | 14.21837 | 24161 ft | 356 kts | 217° |
| 2026-04-29 16:51 | 66.25627 | 14.19002 | 24166 ft | 357 kts | 217° |
| 2026-04-29 16:51 | 66.23441 | 14.16179 | 24163 ft | 358 kts | 218° |
| 2026-04-29 16:52 | 66.21237 | 14.13343 | 24156 ft | 358 kts | 217° |
| 2026-04-29 16:52 | 66.19019 | 14.10493 | 23905 ft | 366 kts | 217° |
| 2026-04-29 16:52 | 66.16766 | 14.07590 | 23711 ft | 369 kts | 217° |
| 2026-04-29 16:52 | 66.14462 | 14.04647 | 23377 ft | 377 kts | 217° |
| 2026-04-29 16:53 | 66.12149 | 14.01690 | 23014 ft | 382 kts | 216° |
| 2026-04-29 16:53 | 66.09756 | 13.98642 | 22627 ft | 387 kts | 216° |
| 2026-04-29 16:53 | 66.07386 | 13.95647 | 22260 ft | 382 kts | 215° |
| 2026-04-29 16:53 | 66.05055 | 13.92719 | 21844 ft | 377 kts | 215° |
| 2026-04-29 16:54 | 66.02735 | 13.89895 | 21601 ft | 366 kts | 212° |
| 2026-04-29 16:54 | 66.00439 | 13.87327 | 21185 ft | 363 kts | 213° |
| 2026-04-29 16:54 | 65.98271 | 13.84542 | 21112 ft | 348 kts | 216° |
| 2026-04-29 16:54 | 65.96156 | 13.81855 | 21173 ft | 336 kts | 216° |
| 2026-04-29 16:55 | 65.94106 | 13.79265 | 21181 ft | 327 kts | 216° |
| 2026-04-29 16:55 | 65.92114 | 13.76748 | 21189 ft | 320 kts | 216° |
| 2026-04-29 16:55 | 65.90158 | 13.74276 | 21191 ft | 314 kts | 217° |
| 2026-04-29 16:55 | 65.88239 | 13.71860 | 21190 ft | 307 kts | 217° |
| 2026-04-29 16:56 | 65.86375 | 13.69519 | 21191 ft | 301 kts | 217° |
| 2026-04-29 16:56 | 65.84541 | 13.67220 | 21200 ft | 296 kts | 217° |
| 2026-04-29 16:56 | 65.82687 | 13.64899 | 21188 ft | 291 kts | 217° |
| 2026-04-29 16:56 | 65.80918 | 13.62688 | 21201 ft | 287 kts | 218° |
| 2026-04-29 16:57 | 65.79169 | 13.60506 | 21201 ft | 282 kts | 218° |
| 2026-04-29 16:57 | 65.77424 | 13.58336 | 21206 ft | 277 kts | 218° |
| 2026-04-29 16:57 | 65.75729 | 13.56229 | 21206 ft | 273 kts | 218° |
| 2026-04-29 16:57 | 65.74040 | 13.54127 | 21233 ft | 277 kts | 218° |
| 2026-04-29 16:58 | 65.72288 | 13.51925 | 21233 ft | 290 kts | 218° |
| 2026-04-29 16:58 | 65.70453 | 13.49636 | 21241 ft | 303 kts | 217° |
| 2026-04-29 16:58 | 65.68547 | 13.47282 | 21236 ft | 314 kts | 217° |
| 2026-04-29 16:58 | 65.66581 | 13.44870 | 21239 ft | 324 kts | 216° |
| 2026-04-29 16:59 | 65.64539 | 13.42380 | 21243 ft | 332 kts | 216° |
| 2026-04-29 16:59 | 65.62455 | 13.39849 | 21245 ft | 339 kts | 215° |
| 2026-04-29 16:59 | 65.60355 | 13.37306 | 21240 ft | 344 kts | 215° |
| 2026-04-29 16:59 | 65.58223 | 13.34731 | 21240 ft | 346 kts | 214° |
| 2026-04-29 17:00 | 65.56029 | 13.32081 | 21237 ft | 349 kts | 214° |
| 2026-04-29 17:00 | 65.53854 | 13.29459 | 21230 ft | 352 kts | 214° |
| 2026-04-29 17:00 | 65.51669 | 13.26825 | 21244 ft | 354 kts | 214° |
| 2026-04-29 17:00 | 65.49469 | 13.24176 | 21246 ft | 357 kts | 213° |
| 2026-04-29 17:01 | 65.47249 | 13.21520 | 21227 ft | 360 kts | 214° |
| 2026-04-29 17:01 | 65.45004 | 13.18825 | 21253 ft | 360 kts | 214° |
| 2026-04-29 17:01 | 65.42749 | 13.16125 | 21223 ft | 360 kts | 214° |
| 2026-04-29 17:01 | 65.40512 | 13.13445 | 21227 ft | 361 kts | 214° |
| 2026-04-29 17:02 | 65.38286 | 13.10786 | 21222 ft | 362 kts | 214° |
| 2026-04-29 17:02 | 65.36036 | 13.08102 | 21216 ft | 363 kts | 213° |
| 2026-04-29 17:02 | 65.33783 | 13.05418 | 21224 ft | 363 kts | 214° |
| 2026-04-29 17:02 | 65.31507 | 13.02716 | 21218 ft | 362 kts | 213° |
| 2026-04-29 17:03 | 65.29253 | 13.00043 | 21217 ft | 362 kts | 213° |
| 2026-04-29 17:03 | 65.27013 | 12.97389 | 21227 ft | 362 kts | 214° |
| 2026-04-29 17:03 | 65.24754 | 12.94716 | 21228 ft | 364 kts | 214° |
| 2026-04-29 17:03 | 65.22489 | 12.92042 | 21237 ft | 364 kts | 213° |
| 2026-04-29 17:04 | 65.20231 | 12.89382 | 21232 ft | 364 kts | 213° |
| 2026-04-29 17:04 | 65.17966 | 12.86722 | 21247 ft | 362 kts | 213° |
| 2026-04-29 17:04 | 65.15712 | 12.84077 | 21252 ft | 363 kts | 214° |
| 2026-04-29 17:04 | 65.13455 | 12.81432 | 21252 ft | 364 kts | 214° |
| 2026-04-29 17:05 | 65.11182 | 12.78773 | 21244 ft | 364 kts | 213° |
| 2026-04-29 17:05 | 65.08944 | 12.76162 | 21246 ft | 364 kts | 213° |
| 2026-04-29 17:05 | 65.06674 | 12.73521 | 21247 ft | 363 kts | 213° |
| 2026-04-29 17:05 | 65.04425 | 12.70907 | 21257 ft | 363 kts | 213° |
| 2026-04-29 17:06 | 65.02150 | 12.68266 | 21258 ft | 365 kts | 213° |
| 2026-04-29 17:06 | 64.99883 | 12.65639 | 21263 ft | 365 kts | 214° |
| 2026-04-29 17:06 | 64.97596 | 12.62996 | 21262 ft | 366 kts | 213° |
| 2026-04-29 17:06 | 64.95333 | 12.60386 | 21256 ft | 365 kts | 213° |
| 2026-04-29 17:07 | 64.93040 | 12.57751 | 21259 ft | 364 kts | 213° |
| 2026-04-29 17:07 | 64.90803 | 12.55181 | 21256 ft | 363 kts | 214° |
| 2026-04-29 17:07 | 64.88549 | 12.52596 | 21257 ft | 362 kts | 213° |
| 2026-04-29 17:07 | 64.86269 | 12.49983 | 21265 ft | 363 kts | 214° |
| 2026-04-29 17:08 | 64.84017 | 12.47407 | 21264 ft | 363 kts | 214° |
| 2026-04-29 17:08 | 64.81743 | 12.44811 | 21264 ft | 363 kts | 214° |
| 2026-04-29 17:08 | 64.79463 | 12.42216 | 21270 ft | 362 kts | 214° |
| 2026-04-29 17:08 | 64.77206 | 12.39651 | 21275 ft | 362 kts | 214° |
| 2026-04-29 17:09 | 64.74932 | 12.37071 | 21281 ft | 364 kts | 214° |
| 2026-04-29 17:09 | 64.72680 | 12.34519 | 21273 ft | 364 kts | 213° |
| 2026-04-29 17:09 | 64.70404 | 12.31948 | 21280 ft | 364 kts | 213° |
| 2026-04-29 17:09 | 64.68130 | 12.29384 | 21291 ft | 364 kts | 213° |
| 2026-04-29 17:10 | 64.65824 | 12.26785 | 21003 ft | 369 kts | 213° |
| 2026-04-29 17:10 | 64.63499 | 12.24171 | 20638 ft | 372 kts | 213° |
| 2026-04-29 17:10 | 64.61189 | 12.21587 | 20267 ft | 374 kts | 213° |
| 2026-04-29 17:10 | 64.58839 | 12.18963 | 19885 ft | 377 kts | 213° |
| 2026-04-29 17:11 | 64.56506 | 12.16365 | 19505 ft | 379 kts | 212° |
| 2026-04-29 17:11 | 64.54114 | 12.13708 | 19115 ft | 379 kts | 213° |
| 2026-04-29 17:11 | 64.51766 | 12.11111 | 18713 ft | 373 kts | 212° |
| 2026-04-29 17:11 | 64.49472 | 12.08591 | 18341 ft | 359 kts | 213° |
| 2026-04-29 17:12 | 64.47265 | 12.06158 | 17982 ft | 351 kts | 213° |
| 2026-04-29 17:12 | 64.45086 | 12.03751 | 17627 ft | 343 kts | 213° |
| 2026-04-29 17:12 | 64.42974 | 12.01416 | 17276 ft | 336 kts | 213° |
| 2026-04-29 17:12 | 64.41567 | 11.99857 | 17030 ft | 333 kts | 214° |
| 2026-04-29 17:13 | 64.38836 | 11.96838 | 16578 ft | 328 kts | 214° |
| 2026-04-29 17:13 | 64.36781 | 11.94572 | 16230 ft | 326 kts | 214° |
| 2026-04-29 17:13 | 64.34759 | 11.92344 | 15907 ft | 323 kts | 214° |
| 2026-04-29 17:13 | 64.32734 | 11.90118 | 15535 ft | 321 kts | 213° |
| 2026-04-29 17:14 | 64.30742 | 11.87946 | 15226 ft | 316 kts | 214° |
| 2026-04-29 17:14 | 64.28748 | 11.85765 | 14901 ft | 314 kts | 214° |
| 2026-04-29 17:14 | 64.26819 | 11.83654 | 14576 ft | 310 kts | 214° |
| 2026-04-29 17:14 | 64.24865 | 11.81525 | 14241 ft | 307 kts | 214° |
| 2026-04-29 17:15 | 64.22960 | 11.79450 | 13935 ft | 305 kts | 214° |
| 2026-04-29 17:15 | 64.21072 | 11.77393 | 13622 ft | 305 kts | 214° |
| 2026-04-29 17:15 | 64.19159 | 11.75314 | 13301 ft | 304 kts | 214° |
| 2026-04-29 17:15 | 64.17249 | 11.73240 | 12987 ft | 304 kts | 214° |
| 2026-04-29 17:16 | 64.15344 | 11.71177 | 12675 ft | 304 kts | 213° |
| 2026-04-29 17:16 | 64.13436 | 11.69117 | 12356 ft | 303 kts | 213° |
| 2026-04-29 17:16 | 64.11508 | 11.67156 | 12088 ft | 304 kts | 210° |
| 2026-04-29 17:16 | 64.09543 | 11.65416 | 11821 ft | 303 kts | 208° |
| 2026-04-29 17:17 | 64.07608 | 11.63728 | 11560 ft | 301 kts | 208° |
| 2026-04-29 17:17 | 64.05643 | 11.62009 | 11299 ft | 300 kts | 208° |
| 2026-04-29 17:17 | 64.03715 | 11.60317 | 11044 ft | 299 kts | 208° |
| 2026-04-29 17:17 | 64.01790 | 11.58623 | 10779 ft | 299 kts | 208° |
| 2026-04-29 17:18 | 63.99873 | 11.56934 | 10522 ft | 297 kts | 208° |
| 2026-04-29 17:18 | 63.97953 | 11.55243 | 10263 ft | 296 kts | 208° |
| 2026-04-29 17:18 | 63.96048 | 11.53567 | 10010 ft | 295 kts | 208° |
| 2026-04-29 17:18 | 63.94146 | 11.51896 | 9757 ft | 292 kts | 208° |
| 2026-04-29 17:19 | 63.92264 | 11.50241 | 9505 ft | 290 kts | 208° |
| 2026-04-29 17:19 | 63.90384 | 11.48589 | 9245 ft | 288 kts | 208° |
| 2026-04-29 17:19 | 63.88526 | 11.46959 | 9003 ft | 286 kts | 208° |
| 2026-04-29 17:19 | 63.86690 | 11.45349 | 8761 ft | 283 kts | 208° |
| 2026-04-29 17:20 | 63.84851 | 11.43739 | 8511 ft | 281 kts | 208° |
| 2026-04-29 17:20 | 63.83055 | 11.42168 | 8260 ft | 277 kts | 208° |
| 2026-04-29 17:20 | 63.81268 | 11.40605 | 8026 ft | 276 kts | 208° |
| 2026-04-29 17:20 | 63.79470 | 11.39035 | 7783 ft | 273 kts | 208° |
| 2026-04-29 17:21 | 63.77727 | 11.37516 | 7554 ft | 272 kts | 208° |
| 2026-04-29 17:21 | 63.75863 | 11.36535 | 7012 ft | 291 kts | 184° |
| 2026-04-29 17:21 | 63.73922 | 11.37661 | 6692 ft | 284 kts | 162° |
| 2026-04-29 17:21 | 63.72133 | 11.39191 | 6420 ft | 270 kts | 163° |
| 2026-04-29 17:22 | 63.70426 | 11.40783 | 6123 ft | 260 kts | 152° |
| 2026-04-29 17:22 | 63.69308 | 11.43659 | 5987 ft | 237 kts | 105° |
| 2026-04-29 17:22 | 63.69178 | 11.47090 | 5998 ft | 219 kts | 81° |
| 2026-04-29 17:22 | 63.69264 | 11.50585 | 5975 ft | 230 kts | 79° |
| 2026-04-29 17:23 | 63.69385 | 11.54233 | 5968 ft | 238 kts | 78° |
| 2026-04-29 17:23 | 63.69467 | 11.58033 | 5946 ft | 249 kts | 90° |
| 2026-04-29 17:23 | 63.69038 | 11.61846 | 5966 ft | 257 kts | 105° |
| 2026-04-29 17:23 | 63.68451 | 11.65690 | 5952 ft | 263 kts | 106° |
| 2026-04-29 17:24 | 63.67859 | 11.69591 | 5951 ft | 268 kts | 105° |
| 2026-04-29 17:24 | 63.67177 | 11.73548 | 5922 ft | 272 kts | 117° |
| 2026-04-29 17:24 | 63.66008 | 11.76826 | 5968 ft | 270 kts | 134° |
| 2026-04-29 17:24 | 63.64696 | 11.79939 | 5937 ft | 272 kts | 134° |
| 2026-04-29 17:25 | 63.63398 | 11.83012 | 5930 ft | 272 kts | 134° |
| 2026-04-29 17:25 | 63.61994 | 11.85833 | 5891 ft | 271 kts | 150° |
| 2026-04-29 17:25 | 63.60322 | 11.87536 | 5923 ft | 266 kts | 161° |
| 2026-04-29 17:25 | 63.58557 | 11.88795 | 5884 ft | 261 kts | 177° |
| 2026-04-29 17:26 | 63.56875 | 11.88136 | 5896 ft | 240 kts | 214° |
| 2026-04-29 17:26 | 63.55777 | 11.85625 | 5909 ft | 218 kts | 249° |
| 2026-04-29 17:26 | 63.55267 | 11.82526 | 5924 ft | 214 kts | 258° |
| 2026-04-29 17:26 | 63.54853 | 11.79315 | 5922 ft | 213 kts | 260° |
| 2026-04-29 17:27 | 63.54488 | 11.76089 | 5925 ft | 212 kts | 262° |
| 2026-04-29 17:27 | 63.54162 | 11.72932 | 5931 ft | 210 kts | 263° |
| 2026-04-29 17:27 | 63.53854 | 11.69729 | 5934 ft | 209 kts | 263° |
| 2026-04-29 17:27 | 63.53563 | 11.66531 | 5932 ft | 211 kts | 264° |
| 2026-04-29 17:28 | 63.53286 | 11.63308 | 5924 ft | 210 kts | 264° |
| 2026-04-29 17:28 | 63.53018 | 11.60120 | 5921 ft | 208 kts | 265° |
| 2026-04-29 17:28 | 63.52739 | 11.56975 | 5937 ft | 208 kts | 261° |
| 2026-04-29 17:28 | 63.51902 | 11.54267 | 5946 ft | 224 kts | 222° |
| 2026-04-29 17:29 | 63.50456 | 11.52807 | 5868 ft | 234 kts | 207° |
| 2026-04-29 17:29 | 63.48901 | 11.51536 | 5660 ft | 242 kts | 207° |
| 2026-04-29 17:29 | 63.47315 | 11.50222 | 5349 ft | 248 kts | 209° |
| 2026-04-29 17:29 | 63.46354 | 11.48902 | 5038 ft | 239 kts | 229° |
| 2026-04-29 17:30 | 63.45568 | 11.44854 | 4744 ft | 208 kts | 269° |
| 2026-04-29 17:30 | 63.45532 | 11.41709 | 4718 ft | 205 kts | 273° |
| 2026-04-29 17:30 | 63.45520 | 11.38472 | 4455 ft | 204 kts | 273° |
| 2026-04-29 17:30 | 63.45514 | 11.35371 | 4080 ft | 196 kts | 273° |
| 2026-04-29 17:31 | 63.45507 | 11.32430 | 3769 ft | 184 kts | 272° |
| 2026-04-29 17:31 | 63.45512 | 11.29654 | 3530 ft | 173 kts | 273° |
| 2026-04-29 17:31 | 63.45551 | 11.27075 | 3367 ft | 161 kts | 275° |
| 2026-04-29 17:31 | 63.45578 | 11.24608 | 3074 ft | 157 kts | 274° |
| 2026-04-29 17:32 | 63.45596 | 11.22205 | 2863 ft | 154 kts | 274° |
| 2026-04-29 17:32 | 63.45614 | 11.19834 | 2669 ft | 154 kts | 273° |
| 2026-04-29 17:32 | 63.45624 | 11.17459 | 2394 ft | 153 kts | 272° |
| 2026-04-29 17:32 | 63.45634 | 11.15108 | 2169 ft | 150 kts | 273° |
| 2026-04-29 17:33 | 63.45641 | 11.12771 | 1951 ft | 151 kts | 273° |
| 2026-04-29 17:33 | 63.45647 | 11.10471 | 1695 ft | 144 kts | 273° |
| 2026-04-29 17:33 | 63.45657 | 11.08293 | 1469 ft | 137 kts | 273° |
| 2026-04-29 17:33 | 63.45668 | 11.06254 | 1246 ft | 127 kts | 273° |
| 2026-04-29 17:34 | 63.45682 | 11.04355 | 1070 ft | 119 kts | 274° |
| 2026-04-29 17:34 | 63.45700 | 11.02514 | 897 ft | 118 kts | 272° |
| 2026-04-29 17:34 | 63.45712 | 11.00632 | 766 ft | 126 kts | 272° |
| 2026-04-29 17:34 | 63.45724 | 10.98601 | 568 ft | 135 kts | 271° |
| 2026-04-29 17:35 | 63.45751 | 10.95023 | 172 ft | 135 kts | 270° |
| 2026-04-29 17:35 | 63.45752 | 10.92467 | 42 ft | 87 kts | 271° |
| 2026-04-29 17:35 | 63.45759 | 10.91649 | 36 ft | 25 kts | 269° |
| 2026-04-29 17:36 | 63.45721 | 10.91506 | 35 ft | 16 kts | 165° |
| 2026-04-29 17:36 | 63.45629 | 10.91516 | 36 ft | 2 kts | 181° |
| 2026-04-29 17:36 | 63.45511 | 10.91472 | 35 ft | 30 kts | 196° |
| 2026-04-29 17:36 | 63.45397 | 10.91253 | 34 ft | 15 kts | 272° |
| 2026-04-29 17:37 | 63.45399 | 10.91194 | 33 ft | 0 kts | 310° |
| 2026-04-29 17:37 | 63.45410 | 10.91190 | 33 ft | 3 kts | 21° |
| 2026-04-29 17:37 | 63.45418 | 10.91265 | 34 ft | 3 kts | 89° |
| 2026-04-29 17:37 | 63.45418 | 10.91269 | 34 ft | 0 kts | 89° |